createdAt,value
2023-02-26T06:19:24.640Z,16.96
2023-02-26T06:29:24.672Z,15.58
2023-02-26T06:39:24.788Z,15.07
2023-02-26T06:49:24.536Z,14.54
2023-02-26T06:59:24.707Z,15.47
2023-02-26T07:09:24.659Z,18.61
2023-02-26T07:19:24.623Z,15.28
2023-02-26T07:29:24.690Z,16.62
2023-02-26T07:39:24.565Z,17.19
2023-02-26T07:49:24.809Z,18.00
2023-02-26T07:59:24.770Z,14.98
2023-02-26T08:09:24.588Z,13.12
2023-02-26T08:19:24.944Z,12.17
2023-02-26T08:29:25.092Z,11.59
2023-02-26T08:39:24.951Z,13.45
2023-02-26T08:49:24.961Z,16.51
2023-02-26T08:59:25.161Z,15.30
2023-02-26T09:09:24.905Z,15.47
2023-02-26T09:19:25.022Z,18.25
2023-02-26T09:29:25.162Z,20.61
2023-02-26T09:39:24.904Z,19.01
2023-02-26T09:49:24.892Z,17.42
2023-02-26T09:59:25.148Z,20.03
2023-02-26T10:09:25.015Z,16.91
2023-02-26T10:19:25.174Z,19.21
2023-02-26T10:29:25.159Z,17.60
2023-02-26T10:39:25.333Z,17.46
2023-02-26T10:49:25.046Z,16.30
2023-02-26T10:59:25.167Z,18.97
2023-02-26T11:09:25.089Z,17.84
2023-02-26T11:19:25.157Z,19.10
2023-02-26T11:29:25.159Z,23.07
2023-02-26T11:39:25.093Z,19.61
2023-02-26T11:49:25.160Z,22.75
2023-02-26T11:59:25.129Z,20.82
2023-02-26T12:09:25.272Z,15.07
2023-02-26T12:19:25.138Z,19.39
2023-02-26T12:29:25.102Z,22.01
2023-02-26T12:39:25.275Z,21.20
2023-02-26T12:49:25.061Z,15.68
2023-02-26T12:59:25.137Z,21.51
2023-02-26T13:09:25.059Z,16.48
2023-02-26T13:19:26.045Z,18.21
2023-02-26T13:29:25.202Z,18.88
2023-02-26T13:39:25.261Z,15.70
2023-02-26T13:49:25.194Z,22.13
2023-02-26T13:59:26.415Z,18.75
2023-02-26T14:09:25.377Z,18.95
2023-02-26T14:19:25.313Z,21.87
2023-02-26T14:29:25.186Z,26.24
2023-02-26T14:39:25.452Z,24.82
2023-02-26T14:49:25.218Z,24.17
2023-02-26T14:59:25.260Z,23.16
2023-02-26T15:09:25.341Z,23.58
2023-02-26T15:19:25.399Z,23.37
2023-02-26T15:29:25.149Z,20.03
2023-02-26T15:39:25.364Z,21.34
2023-02-26T15:49:25.497Z,21.29
2023-02-26T15:59:25.329Z,22.28
2023-02-26T16:09:25.645Z,18.85
2023-02-26T16:19:25.484Z,12.22
2023-02-26T16:29:25.347Z,15.36
2023-02-26T16:39:25.355Z,16.45
2023-02-26T16:49:25.505Z,16.00
2023-02-26T16:59:25.452Z,14.53
2023-02-26T17:09:25.404Z,10.69
2023-02-26T17:19:25.403Z,6.94
2023-02-26T17:29:25.178Z,4.12
2023-02-26T17:39:25.426Z,1.10
2023-02-26T17:49:25.492Z,0.00
2023-02-26T17:59:25.388Z,0.91
2023-02-26T18:09:25.579Z,4.15
2023-02-26T18:19:25.450Z,5.44
2023-02-26T18:29:25.366Z,6.25
2023-02-26T18:39:25.441Z,6.41
2023-02-26T18:49:25.741Z,7.08
2023-02-26T18:59:25.704Z,6.99
2023-02-26T19:09:25.767Z,5.62
2023-02-26T19:19:26.078Z,5.36
